createdAt,value
2022-09-18T00:01:10.654Z,101324.59
2022-09-18T00:03:38.666Z,101316.56
2022-09-18T00:06:08.589Z,101319.25
2022-09-18T00:08:38.481Z,101317.47
2022-09-18T00:11:07.925Z,101317.47
2022-09-18T00:13:39.097Z,101305.00
2022-09-18T00:16:08.361Z,101307.69
2022-09-18T00:18:36.393Z,101307.66
2022-09-18T00:21:06.000Z,101315.72
2022-09-18T00:23:34.025Z,101311.25
2022-09-18T00:26:01.853Z,101313.94
2022-09-18T00:28:29.785Z,101307.69
2022-09-18T00:31:04.628Z,101300.59
2022-09-18T00:33:32.593Z,101295.22
2022-09-18T00:36:01.860Z,101289.88
2022-09-18T00:38:31.876Z,101293.50
2022-09-18T00:40:59.997Z,101299.75
2022-09-18T00:43:29.979Z,101308.66
2022-09-18T00:46:02.439Z,101307.78
2022-09-18T00:48:33.521Z,101311.31
2022-09-18T00:51:01.428Z,101310.47
2022-09-18T00:53:29.947Z,101313.19
2022-09-18T00:55:59.813Z,101314.94
2022-09-18T00:58:27.767Z,101313.16
2022-09-18T01:00:56.196Z,101313.16
2022-09-18T01:03:25.324Z,101319.34
2022-09-18T01:06:06.829Z,101324.69
2022-09-18T01:08:44.260Z,101317.56
2022-09-18T01:11:25.863Z,101312.19
2022-09-18T01:14:01.360Z,101313.06
2022-09-18T01:16:33.487Z,101312.19
2022-09-18T01:19:16.153Z,101310.38
2022-09-18T01:21:50.626Z,101306.84
2022-09-18T01:24:45.274Z,101314.00
2022-09-18T01:27:20.779Z,101303.28
2022-09-18T01:29:56.797Z,101311.31
2022-09-18T01:32:28.867Z,101311.31
2022-09-18T01:35:09.767Z,101310.44
2022-09-18T01:37:52.858Z,101300.59
2022-09-18T01:40:25.627Z,101299.66
2022-09-18T01:42:57.299Z,101302.38
2022-09-18T01:45:30.758Z,101301.47
2022-09-18T01:48:02.438Z,101300.59
2022-09-18T01:50:33.434Z,101298.78
2022-09-18T01:53:05.329Z,101300.56
2022-09-18T01:55:35.163Z,101300.53
2022-09-18T01:58:07.337Z,101300.53
2022-09-18T02:00:38.354Z,101298.75
2022-09-18T02:03:11.593Z,101306.84
2022-09-18T02:05:45.500Z,101297.91
2022-09-18T02:08:18.991Z,101291.66
2022-09-18T02:10:51.858Z,101288.09
2022-09-18T02:13:24.873Z,101275.56
2022-09-18T02:16:01.185Z,101279.13
2022-09-18T02:18:33.082Z,101272.84
2022-09-18T02:21:02.556Z,101276.44
2022-09-18T02:23:31.760Z,101282.69
2022-09-18T02:26:04.370Z,101288.91
2022-09-18T02:28:34.038Z,101286.22
2022-09-18T02:31:03.365Z,101280.88
2022-09-18T02:33:32.801Z,101287.13
2022-09-18T02:36:31.906Z,101277.31
2022-09-18T02:39:13.844Z,101280.91
2022-09-18T02:41:50.313Z,101285.38
2022-09-18T02:44:24.365Z,101283.56
2022-09-18T02:47:01.744Z,101270.16
2022-09-18T02:49:37.593Z,101279.13
2022-09-18T02:52:10.279Z,101272.84
2022-09-18T02:54:43.076Z,101273.75
2022-09-18T02:57:15.262Z,101280.88
2022-09-18T02:59:47.491Z,101279.13
2022-09-18T03:02:16.528Z,101269.25
2022-09-18T03:04:45.355Z,101272.84
2022-09-18T03:07:14.629Z,101275.56
2022-09-18T03:09:42.497Z,101269.28
2022-09-18T03:12:10.238Z,101268.41
2022-09-18T03:14:37.818Z,101272.00
2022-09-18T03:17:05.715Z,101273.75
2022-09-18T03:19:34.677Z,101268.41
2022-09-18T03:22:02.285Z,101269.34
2022-09-18T03:24:29.990Z,101267.50
2022-09-18T03:26:57.735Z,101269.38
2022-09-18T03:29:25.330Z,101269.38
2022-09-18T03:31:53.035Z,101270.22
2022-09-18T03:34:20.950Z,101270.25
2022-09-18T03:36:49.933Z,101262.16
2022-09-18T03:39:18.894Z,101263.06
2022-09-18T03:41:46.501Z,101262.22
2022-09-18T03:44:14.108Z,101263.09
2022-09-18T03:46:41.779Z,101268.47
2022-09-18T03:49:09.949Z,101266.69
2022-09-18T03:51:37.821Z,101268.47
2022-09-18T03:54:07.007Z,101271.16
2022-09-18T03:56:37.037Z,101272.03
2022-09-18T03:59:04.615Z,101266.66
2022-09-18T04:01:32.275Z,101268.47
2022-09-18T04:03:59.943Z,101273.81
2022-09-18T04:06:27.655Z,101258.59
2022-09-18T04:08:55.258Z,101263.09
2022-09-18T04:11:24.244Z,101254.19
2022-09-18T04:13:51.865Z,101247.91
2022-09-18T04:16:19.558Z,101248.84
2022-09-18T04:18:47.181Z,101251.50
2022-09-18T04:21:14.818Z,101250.63
2022-09-18T04:23:42.443Z,101256.00
2022-09-18T04:26:10.351Z,101254.25
2022-09-18T04:28:39.430Z,101260.47
2022-09-18T04:31:07.251Z,101262.28
2022-09-18T04:33:34.907Z,101266.72
2022-09-18T04:36:02.962Z,101265.84
2022-09-18T04:38:30.581Z,101253.28
2022-09-18T04:40:58.981Z,101247.03
2022-09-18T04:43:27.904Z,101247.94
2022-09-18T04:45:57.095Z,101253.31
2022-09-18T04:48:24.903Z,101255.09
2022-09-18T04:50:52.796Z,101238.16
2022-09-18T04:53:21.117Z,101245.28
2022-09-18T04:55:49.758Z,101243.50
2022-09-18T04:58:18.705Z,101246.19
2022-09-18T05:00:48.888Z,101245.28
2022-09-18T05:03:19.318Z,101247.94
2022-09-18T05:05:48.298Z,101248.84
2022-09-18T05:08:15.925Z,101255.06
2022-09-18T05:10:43.927Z,101252.38
2022-09-18T05:13:11.555Z,101264.91
2022-09-18T05:15:39.185Z,101262.16
2022-09-18T05:18:11.529Z,101259.47
2022-09-18T05:20:41.099Z,101260.41
2022-09-18T05:23:08.748Z,101263.97
2022-09-18T05:25:36.378Z,101257.72
2022-09-18T05:28:04.908Z,101251.44
2022-09-18T05:30:33.059Z,101251.44
2022-09-18T05:33:02.630Z,101249.69
2022-09-18T05:35:32.143Z,101251.44
2022-09-18T05:38:01.826Z,101245.22
2022-09-18T05:40:32.781Z,101240.78
2022-09-18T05:43:01.007Z,101239.88
2022-09-18T05:45:28.655Z,101244.34
2022-09-18T05:47:57.786Z,101245.25
2022-09-18T05:50:26.946Z,101242.56
2022-09-18T05:52:59.580Z,101240.72
2022-09-18T05:55:31.774Z,101246.94
2022-09-18T05:58:01.189Z,101251.38
2022-09-18T06:00:31.203Z,101249.59
2022-09-18T06:03:00.302Z,101246.03
2022-09-18T06:05:29.459Z,101252.25
2022-09-18T06:07:59.985Z,101247.78
2022-09-18T06:10:30.385Z,101257.59
2022-09-18T06:13:02.560Z,101246.81
2022-09-18T06:15:30.362Z,101243.19
2022-09-18T06:17:58.065Z,101251.22
2022-09-18T06:20:25.686Z,101251.22
2022-09-18T06:22:53.503Z,101251.22
2022-09-18T06:25:22.077Z,101263.78
2022-09-18T06:27:54.526Z,101267.34
2022-09-18T06:30:22.023Z,101262.91
2022-09-18T06:32:49.686Z,101261.06
2022-09-18T06:35:17.525Z,101254.78
2022-09-18T06:37:45.123Z,101261.94
2022-09-18T06:40:13.414Z,101267.28
2022-09-18T06:42:45.825Z,101261.94
2022-09-18T06:45:15.076Z,101267.28
2022-09-18T06:47:42.712Z,101257.41
2022-09-18T06:50:10.616Z,101268.09
2022-09-18T06:52:38.232Z,101252.91
2022-09-18T06:55:06.484Z,101250.16
2022-09-18T06:57:34.100Z,101260.84
2022-09-18T07:00:01.999Z,101265.34
2022-09-18T07:02:31.054Z,101254.56
2022-09-18T07:04:58.737Z,101236.63
2022-09-18T07:07:26.371Z,101239.31
2022-09-18T07:09:54.001Z,101242.88
2022-09-18T07:12:21.770Z,101241.03
2022-09-18T07:14:55.507Z,101243.69
2022-09-18T07:17:26.233Z,101240.06
2022-09-18T07:19:55.687Z,101241.78
2022-09-18T07:22:23.334Z,101236.41
2022-09-18T07:24:51.035Z,101243.47
2022-09-18T07:27:18.659Z,101242.53
2022-09-18T07:29:46.333Z,101243.38
2022-09-18T07:32:13.998Z,101242.34
2022-09-18T07:34:41.702Z,101236.03
2022-09-18T07:37:10.709Z,101235.03
2022-09-18T07:39:38.319Z,101238.44
2022-09-18T07:42:08.968Z,101228.53
2022-09-18T07:44:36.786Z,101229.34
2022-09-18T07:47:05.419Z,101237.34
2022-09-18T07:49:33.821Z,101236.56
2022-09-18T07:52:02.331Z,101231.19
2022-09-18T07:54:32.193Z,101230.38
2022-09-18T07:56:59.874Z,101220.63
2022-09-18T07:59:27.502Z,101229.59
2022-09-18T08:01:55.884Z,101239.44
2022-09-18T08:04:23.849Z,101235.78
2022-09-18T08:06:55.098Z,101239.31
2022-09-18T08:09:23.272Z,101228.56
2022-09-18T08:11:54.108Z,101238.41
2022-09-18T08:14:25.359Z,101232.97
2022-09-18T08:16:55.731Z,101233.78
2022-09-18T08:19:23.416Z,101237.38
2022-09-18T08:21:51.022Z,101240.06
2022-09-18T08:24:18.963Z,101243.72
2022-09-18T08:26:46.721Z,101235.78
2022-09-18T08:29:19.244Z,101234.88
2022-09-18T08:31:47.878Z,101233.03
2022-09-18T08:34:15.895Z,101230.50
2022-09-18T08:36:43.569Z,101233.19
2022-09-18T08:39:11.224Z,101236.75
2022-09-18T08:41:52.427Z,101234.91
2022-09-18T08:44:25.069Z,101228.56
2022-09-18T08:46:59.225Z,101231.97
2022-09-18T08:49:32.728Z,101230.13
2022-09-18T08:52:05.736Z,101230.97
2022-09-18T08:54:44.525Z,101222.78
2022-09-18T08:57:17.253Z,101220.91
2022-09-18T08:59:50.578Z,101226.22
2022-09-18T09:02:28.428Z,101230.59
2022-09-18T09:04:59.656Z,101228.78
2022-09-18T09:07:46.075Z,101226.09
2022-09-18T09:10:27.307Z,101227.84
2022-09-18T09:13:04.878Z,101224.28
2022-09-18T09:15:40.401Z,101230.59
2022-09-18T09:18:19.199Z,101211.78
2022-09-18T09:20:52.296Z,101214.38
2022-09-18T09:23:28.852Z,101212.50
2022-09-18T09:26:05.417Z,101211.66
2022-09-18T09:28:39.412Z,101204.41
2022-09-18T09:31:10.934Z,101202.50
2022-09-18T09:33:43.384Z,101208.66
2022-09-18T09:36:11.783Z,101203.25
2022-09-18T09:38:47.170Z,101206.09
2022-09-18T09:41:23.693Z,101210.66
2022-09-18T09:43:58.987Z,101208.03
2022-09-18T09:46:44.539Z,101209.13
2022-09-18T09:49:18.478Z,101224.72
2022-09-18T09:51:54.362Z,101210.41
2022-09-18T09:54:22.068Z,101208.66
2022-09-18T09:56:55.416Z,101208.66
2022-09-18T09:59:30.890Z,101211.34
2022-09-18T10:02:05.760Z,101209.66
2022-09-18T10:04:45.322Z,101212.50
2022-09-18T10:07:20.783Z,101225.13
2022-09-18T10:09:54.577Z,101204.81
2022-09-18T10:12:31.830Z,101202.03
2022-09-18T10:15:07.923Z,101197.59
2022-09-18T10:17:41.322Z,101199.31
2022-09-18T10:20:17.528Z,101210.75
2022-09-18T10:22:47.642Z,101211.69
2022-09-18T10:25:21.965Z,101205.38
2022-09-18T10:27:49.595Z,101203.66
2022-09-18T10:30:17.559Z,101205.63
2022-09-18T10:32:46.640Z,101194.94
2022-09-18T10:35:41.375Z,101201.16
2022-09-18T10:38:32.372Z,101192.97
2022-09-18T10:41:18.811Z,101197.28
2022-09-18T10:43:55.932Z,101197.88
2022-09-18T10:46:32.814Z,101198.44
2022-09-18T10:49:05.908Z,101199.13
2022-09-18T10:51:33.614Z,101199.94
2022-09-18T10:54:05.010Z,101197.28
2022-09-18T10:56:33.400Z,101199.09
2022-09-18T10:59:33.422Z,101191.72
2022-09-18T11:02:03.620Z,101191.59
2022-09-18T11:04:34.050Z,101190.47
2022-09-18T11:07:07.311Z,101194.06
2022-09-18T11:09:38.745Z,101190.44
2022-09-18T11:12:13.455Z,101185.13
2022-09-18T11:14:44.614Z,101187.88
2022-09-18T11:17:23.827Z,101181.59
2022-09-18T11:19:55.185Z,101182.56
2022-09-18T11:22:41.309Z,101183.38
2022-09-18T11:25:20.080Z,101179.78
2022-09-18T11:27:49.776Z,101181.44
2022-09-18T11:30:22.898Z,101184.97
2022-09-18T11:32:54.536Z,101178.66
2022-09-18T11:35:23.782Z,101175.94
2022-09-18T11:37:54.348Z,101176.81
2022-09-18T11:40:25.621Z,101173.25
2022-09-18T11:42:55.366Z,101173.19
2022-09-18T11:45:35.898Z,101168.63
2022-09-18T11:48:13.139Z,101184.59
2022-09-18T11:50:42.438Z,101170.13
2022-09-18T11:53:14.332Z,101184.47
2022-09-18T11:55:44.898Z,101173.59
2022-09-18T11:58:16.563Z,101167.38
2022-09-18T12:00:49.040Z,101181.84
2022-09-18T12:03:21.729Z,101180.06
2022-09-18T12:05:56.409Z,101178.41
2022-09-18T12:08:33.802Z,101177.50
2022-09-18T12:11:11.279Z,101174.88
2022-09-18T12:13:46.922Z,101186.69
2022-09-18T12:16:20.742Z,101176.91
2022-09-18T12:18:55.261Z,101181.44
2022-09-18T12:21:35.559Z,101180.53
2022-09-18T12:24:03.543Z,101177.91
2022-09-18T12:26:41.911Z,101177.91
2022-09-18T12:29:20.774Z,101187.72
2022-09-18T12:31:59.348Z,101182.25
2022-09-18T12:34:34.567Z,101184.84
2022-09-18T12:37:28.571Z,101183.97
2022-09-18T12:40:12.332Z,101187.72
2022-09-18T12:42:53.400Z,101182.34
2022-09-18T12:45:51.194Z,101177.09
2022-09-18T12:48:31.517Z,101175.38
2022-09-18T12:51:15.846Z,101181.75
2022-09-18T12:53:53.851Z,101166.56
2022-09-18T12:56:35.866Z,101179.94
2022-09-18T12:59:20.963Z,101179.03
2022-09-18T13:01:53.581Z,101172.78
2022-09-18T13:04:27.527Z,101188.81
2022-09-18T13:07:00.352Z,101178.91
2022-09-18T13:09:35.363Z,101174.38
2022-09-18T13:12:06.710Z,101180.66
2022-09-18T13:14:38.946Z,101176.16
2022-09-18T13:17:12.480Z,101190.50
2022-09-18T13:19:47.750Z,101180.59
2022-09-18T13:22:18.585Z,101176.16
2022-09-18T13:24:52.255Z,101167.34
2022-09-18T13:27:22.330Z,101176.41
2022-09-18T13:29:58.900Z,101177.41
2022-09-18T13:32:39.215Z,101173.72
2022-09-18T13:35:20.560Z,101180.00
2022-09-18T13:37:49.750Z,101178.94
2022-09-18T13:40:35.870Z,101177.03
2022-09-18T13:43:24.590Z,101172.53
2022-09-18T13:45:52.813Z,101174.22
2022-09-18T13:48:24.865Z,101170.53
2022-09-18T13:50:56.590Z,101166.06
2022-09-18T13:53:43.325Z,101165.41
2022-09-18T13:56:14.162Z,101172.53
2022-09-18T13:58:52.704Z,101186.22
2022-09-18T14:02:01.113Z,101187.72
2022-09-18T14:05:08.562Z,101186.59
2022-09-18T14:07:49.272Z,101171.53
2022-09-18T14:10:59.540Z,101185.09
2022-09-18T14:13:43.882Z,101178.09
2022-09-18T14:16:24.626Z,101193.47
2022-09-18T14:19:05.513Z,101191.03
2022-09-18T14:21:39.950Z,101190.41
2022-09-18T14:24:36.329Z,101195.13
2022-09-18T14:27:36.815Z,101193.38
2022-09-18T14:30:18.192Z,101209.50
2022-09-18T14:33:13.862Z,101192.69
2022-09-18T14:36:04.418Z,101195.28
2022-09-18T14:38:35.345Z,101189.00
2022-09-18T14:41:10.175Z,101195.09
2022-09-18T14:43:39.810Z,101191.44
2022-09-18T14:46:18.570Z,101174.38
2022-09-18T14:48:46.235Z,101175.19
2022-09-18T14:51:19.556Z,101179.66
2022-09-18T14:53:50.990Z,101180.75
2022-09-18T14:56:23.916Z,101186.16
2022-09-18T14:58:52.136Z,101188.03
2022-09-18T15:01:24.217Z,101202.41
2022-09-18T15:03:54.433Z,101197.06
2022-09-18T15:06:24.998Z,101192.53
2022-09-18T15:08:55.716Z,101209.47
2022-09-18T15:11:32.100Z,101197.84
2022-09-18T15:14:21.341Z,101194.44
2022-09-18T15:16:57.570Z,101198.03
2022-09-18T15:19:25.539Z,101187.28
2022-09-18T15:21:54.304Z,101198.88
2022-09-18T15:24:22.535Z,101197.06
2022-09-18T15:26:56.132Z,101200.66
2022-09-18T15:29:27.310Z,101196.22
2022-09-18T15:31:57.214Z,101198.91
2022-09-18T15:34:27.956Z,101204.22
2022-09-18T15:36:57.800Z,101201.56
2022-09-18T15:39:30.839Z,101205.16
2022-09-18T15:42:14.357Z,101209.69
2022-09-18T15:45:22.830Z,101208.78
2022-09-18T15:47:52.516Z,101220.34
2022-09-18T15:50:36.588Z,101218.56
2022-09-18T15:53:25.672Z,101216.72
2022-09-18T15:55:59.998Z,101212.28
2022-09-18T15:58:42.255Z,101213.19
2022-09-18T16:01:18.483Z,101211.44
2022-09-18T16:03:47.951Z,101212.31
2022-09-18T16:06:26.469Z,101223.88
2022-09-18T16:08:57.259Z,101226.59
2022-09-18T16:11:40.816Z,101221.25
2022-09-18T16:14:45.721Z,101224.00
2022-09-18T16:17:36.991Z,101223.25
2022-09-18T16:20:31.644Z,101217.91
2022-09-18T16:23:15.116Z,101219.59
2022-09-18T16:25:43.618Z,101217.81
2022-09-18T16:28:24.980Z,101224.03
2022-09-18T16:30:53.466Z,101224.03
2022-09-18T16:33:23.196Z,101225.84
2022-09-18T16:35:57.779Z,101225.88
2022-09-18T16:38:25.413Z,101235.69
2022-09-18T16:40:53.035Z,101224.13
2022-09-18T16:43:21.026Z,101235.72
2022-09-18T16:45:49.038Z,101241.09
2022-09-18T16:48:17.059Z,101241.16
2022-09-18T16:50:45.073Z,101245.63
2022-09-18T16:53:16.180Z,101251.84
2022-09-18T16:55:47.078Z,101254.47
2022-09-18T16:58:15.894Z,101259.84
2022-09-18T17:00:43.766Z,101256.25
2022-09-18T17:03:12.125Z,101254.47
2022-09-18T17:05:39.886Z,101247.38
2022-09-18T17:08:07.513Z,101227.75
2022-09-18T17:10:36.835Z,101220.56
2022-09-18T17:13:05.258Z,101212.50
2022-09-18T17:15:32.962Z,101209.78
2022-09-18T17:18:00.592Z,101207.97
2022-09-18T17:20:30.888Z,101200.84
2022-09-18T17:22:58.523Z,101194.59
2022-09-18T17:25:26.332Z,101198.16
2022-09-18T17:27:55.310Z,101199.06
2022-09-18T17:30:23.041Z,101209.78
2022-09-18T17:32:50.717Z,101210.72
2022-09-18T17:35:18.757Z,101208.94
2022-09-18T17:37:46.461Z,101213.44
2022-09-18T17:40:14.250Z,101223.22
2022-09-18T17:42:41.950Z,101218.78
2022-09-18T17:45:11.509Z,101218.78
2022-09-18T17:47:39.147Z,101221.50
2022-09-18T17:50:07.568Z,101221.50
2022-09-18T17:52:35.982Z,101217.94
2022-09-18T17:55:04.460Z,101223.28
2022-09-18T17:57:32.816Z,101213.47
2022-09-18T18:00:00.405Z,101209.94
2022-09-18T18:02:29.415Z,101206.34
2022-09-18T18:04:57.205Z,101192.97
2022-09-18T18:07:25.002Z,101198.34
2022-09-18T18:09:52.586Z,101218.88
2022-09-18T18:12:20.195Z,101225.16
2022-09-18T18:14:47.828Z,101221.63
2022-09-18T18:17:15.509Z,101223.44
2022-09-18T18:19:45.964Z,101220.78
2022-09-18T18:22:13.588Z,101219.94
2022-09-18T18:24:41.244Z,101229.75
2022-09-18T18:27:10.270Z,101228.03
2022-09-18T18:29:39.727Z,101244.09
2022-09-18T18:32:07.660Z,101248.56
2022-09-18T18:34:35.295Z,101253.03
2022-09-18T18:37:05.888Z,101250.38
2022-09-18T18:39:33.646Z,101250.41
2022-09-18T18:42:01.418Z,101260.22
2022-09-18T18:44:29.235Z,101263.78
2022-09-18T18:46:56.964Z,101258.44
2022-09-18T18:49:24.624Z,101268.28
2022-09-18T18:51:52.271Z,101268.28
2022-09-18T18:54:22.813Z,101269.16
2022-09-18T18:56:51.599Z,101263.84
2022-09-18T18:59:22.185Z,101277.19
2022-09-18T19:01:50.329Z,101274.53
2022-09-18T19:04:19.796Z,101278.09
2022-09-18T19:06:48.674Z,101276.31
2022-09-18T19:09:20.348Z,101282.56
2022-09-18T19:11:51.734Z,101285.25
2022-09-18T19:14:21.564Z,101289.72
2022-09-18T19:16:50.126Z,101286.13
2022-09-18T19:19:19.726Z,101289.69
2022-09-18T19:21:48.070Z,101287.03
2022-09-18T19:24:18.469Z,101296.81
2022-09-18T19:26:46.938Z,101291.50
2022-09-18T19:29:17.603Z,101292.38
2022-09-18T19:31:46.367Z,101291.50
2022-09-18T19:34:16.109Z,101296.84
2022-09-18T19:36:49.953Z,101295.06
2022-09-18T19:39:18.409Z,101309.31
2022-09-18T19:41:51.287Z,101301.31
2022-09-18T19:44:26.836Z,101304.88
2022-09-18T19:46:56.585Z,101305.75
2022-09-18T19:49:32.795Z,101297.75
2022-09-18T19:52:01.312Z,101300.41
2022-09-18T19:54:29.165Z,101298.63
2022-09-18T19:56:58.059Z,101304.00
2022-09-18T19:59:27.150Z,101307.53
2022-09-18T20:01:55.320Z,101316.47
2022-09-18T20:04:23.026Z,101320.91
2022-09-18T20:06:50.655Z,101317.34
2022-09-18T20:09:18.311Z,101316.47
2022-09-18T20:11:48.305Z,101329.81
2022-09-18T20:14:16.425Z,101329.81
2022-09-18T20:16:45.537Z,101323.56
2022-09-18T20:19:13.267Z,101329.84
2022-09-18T20:21:41.008Z,101330.72
2022-09-18T20:24:08.673Z,101343.19
2022-09-18T20:26:36.325Z,101333.41
2022-09-18T20:29:04.150Z,101341.41
2022-09-18T20:31:31.811Z,101339.63
2022-09-18T20:34:00.999Z,101338.75
2022-09-18T20:36:29.321Z,101336.94
2022-09-18T20:38:57.829Z,101344.09
2022-09-18T20:41:29.847Z,101346.78
2022-09-18T20:44:01.100Z,101347.66
2022-09-18T20:46:28.908Z,101347.66
2022-09-18T20:48:56.721Z,101356.56
2022-09-18T20:51:28.882Z,101352.09
2022-09-18T20:53:58.138Z,101359.22
2022-09-18T20:56:28.014Z,101362.78
2022-09-18T20:58:56.702Z,101365.47
2022-09-18T21:01:27.819Z,101363.66
2022-09-18T21:03:57.705Z,101359.22
2022-09-18T21:06:31.603Z,101362.78
2022-09-18T21:09:00.187Z,101361.88
2022-09-18T21:11:29.857Z,101373.47
2022-09-18T21:14:01.189Z,101365.44
2022-09-18T21:16:31.566Z,101369.91
2022-09-18T21:19:01.845Z,101374.34
2022-09-18T21:21:33.818Z,101381.47
2022-09-18T21:24:02.487Z,101379.69
2022-09-18T21:26:33.094Z,101376.13
2022-09-18T21:29:02.862Z,101371.69
2022-09-18T21:31:32.696Z,101373.44
2022-09-18T21:34:01.544Z,101369.91
2022-09-18T21:36:31.196Z,101377.00
2022-09-18T21:39:00.508Z,101374.34
2022-09-18T21:41:28.215Z,101375.25
2022-09-18T21:43:57.434Z,101370.81
2022-09-18T21:46:25.282Z,101372.56
2022-09-18T21:48:56.711Z,101383.25
2022-09-18T21:51:24.374Z,101381.47
2022-09-18T21:53:52.097Z,101383.22
2022-09-18T21:56:21.641Z,101381.47
2022-09-18T21:58:50.250Z,101379.66
2022-09-18T22:01:19.965Z,101385.94
2022-09-18T22:03:52.181Z,101388.59
2022-09-18T22:06:21.032Z,101387.69
2022-09-18T22:08:50.801Z,101393.06
2022-09-18T22:11:19.764Z,101392.16
2022-09-18T22:13:48.795Z,101396.59
2022-09-18T22:16:16.967Z,101385.94
2022-09-18T22:18:45.235Z,101399.25
2022-09-18T22:21:20.375Z,101402.84
2022-09-18T22:23:53.152Z,101403.75
2022-09-18T22:26:21.985Z,101403.75
2022-09-18T22:28:53.351Z,101401.94
2022-09-18T22:31:22.319Z,101404.66
2022-09-18T22:33:53.545Z,101418.03
2022-09-18T22:36:22.126Z,101415.34
2022-09-18T22:38:49.854Z,101416.22
2022-09-18T22:41:17.938Z,101413.56
2022-09-18T22:43:45.584Z,101419.78
2022-09-18T22:46:17.550Z,101423.31
2022-09-18T22:48:45.278Z,101418.88
2022-09-18T22:51:15.107Z,101427.78
2022-09-18T22:53:48.945Z,101432.22
2022-09-18T22:56:17.685Z,101430.47
2022-09-18T22:58:45.918Z,101423.31
2022-09-18T23:01:18.646Z,101431.38
2022-09-18T23:03:47.632Z,101426.91
2022-09-18T23:06:16.628Z,101434.06
2022-09-18T23:08:46.147Z,101431.38
2022-09-18T23:11:16.118Z,101437.63
2022-09-18T23:13:48.881Z,101443.84
2022-09-18T23:16:18.365Z,101436.72
2022-09-18T23:18:49.361Z,101442.97
2022-09-18T23:21:17.698Z,101432.28
2022-09-18T23:23:46.887Z,101445.66
2022-09-18T23:26:19.298Z,101444.75
2022-09-18T23:28:48.297Z,101446.53
2022-09-18T23:31:21.425Z,101451.00
2022-09-18T23:33:50.809Z,101451.00
2022-09-18T23:36:20.747Z,101446.53
2022-09-18T23:38:49.554Z,101446.53
2022-09-18T23:41:17.765Z,101453.63
2022-09-18T23:43:47.177Z,101454.50
2022-09-18T23:46:15.442Z,101445.63
2022-09-18T23:48:47.344Z,101445.63
2022-09-18T23:51:16.115Z,101442.94
2022-09-18T23:53:43.726Z,101444.75
2022-09-18T23:56:13.120Z,101447.41
2022-09-18T23:58:41.848Z,101449.19
